createdAt,value
2023-04-01T00:01:01.562Z,13.90
2023-04-01T00:03:30.297Z,13.55
2023-04-01T00:05:59.473Z,14.43
2023-04-01T00:08:27.930Z,16.08
2023-04-01T00:10:55.664Z,13.18
2023-04-01T00:13:22.965Z,13.45
2023-04-01T00:15:50.172Z,15.68
2023-04-01T00:18:17.244Z,14.70
2023-04-01T00:20:47.181Z,16.05
2023-04-01T00:23:15.624Z,16.23
2023-04-01T00:25:42.937Z,17.52
2023-04-01T00:28:09.952Z,14.30
2023-04-01T00:30:38.181Z,17.10
2023-04-01T00:33:06.016Z,12.82
2023-04-01T00:35:33.697Z,17.02
2023-04-01T00:38:01.394Z,13.43
2023-04-01T00:40:37.779Z,16.60
2023-04-01T00:43:20.601Z,15.83
2023-04-01T00:45:49.682Z,15.50
2023-04-01T00:48:24.401Z,14.75
2023-04-01T00:50:56.370Z,14.35
2023-04-01T00:53:24.875Z,15.70
2023-04-01T00:55:56.756Z,12.67
2023-04-01T00:58:26.056Z,14.38
2023-04-01T01:00:53.565Z,16.20
2023-04-01T01:03:20.908Z,14.40
2023-04-01T01:06:00.196Z,13.70
2023-04-01T01:08:59.360Z,14.73
2023-04-01T01:11:59.233Z,13.35
2023-04-01T01:14:41.614Z,14.48
2023-04-01T01:17:35.062Z,14.95
2023-04-01T01:20:26.321Z,14.43
2023-04-01T01:23:32.048Z,16.27
2023-04-01T01:26:14.087Z,19.25
2023-04-01T01:29:11.978Z,15.55
2023-04-01T01:31:46.724Z,12.25
2023-04-01T01:34:40.737Z,16.48
2023-04-01T01:37:17.447Z,16.53
2023-04-01T01:39:49.215Z,15.35
2023-04-01T01:42:19.455Z,16.83
2023-04-01T01:44:50.461Z,14.60
2023-04-01T01:47:20.639Z,16.42
2023-04-01T01:49:47.814Z,16.70
2023-04-01T01:52:18.181Z,16.98
2023-04-01T01:54:59.023Z,15.07
2023-04-01T01:57:36.046Z,15.98
2023-04-01T02:00:14.863Z,15.38
2023-04-01T02:02:47.699Z,18.97
2023-04-01T02:05:25.712Z,16.67
2023-04-01T02:08:08.444Z,16.17
2023-04-01T02:10:41.117Z,14.45
2023-04-01T02:13:21.419Z,15.43
2023-04-01T02:15:51.879Z,17.10
2023-04-01T02:18:21.618Z,14.23
2023-04-01T02:20:50.367Z,17.77
2023-04-01T02:23:17.518Z,15.25
2023-04-01T02:25:45.336Z,15.02
2023-04-01T02:28:17.037Z,16.53
2023-04-01T02:30:45.793Z,13.13
2023-04-01T02:33:13.686Z,16.13
2023-04-01T02:35:41.226Z,16.88
2023-04-01T02:38:08.661Z,16.50
2023-04-01T02:40:50.660Z,18.20
2023-04-01T02:43:18.772Z,19.27
2023-04-01T02:45:45.825Z,15.40
2023-04-01T02:48:14.045Z,15.93
2023-04-01T02:50:41.614Z,18.58
2023-04-01T02:53:09.043Z,16.23
2023-04-01T02:55:36.200Z,16.50
2023-04-01T02:58:03.632Z,18.95
2023-04-01T03:00:31.693Z,16.70
2023-04-01T03:02:58.966Z,17.13
2023-04-01T03:05:26.443Z,18.50
2023-04-01T03:07:53.582Z,18.05
2023-04-01T03:10:21.070Z,16.17
2023-04-01T03:12:48.371Z,17.85
2023-04-01T03:15:15.810Z,17.58
2023-04-01T03:17:43.476Z,17.10
2023-04-01T03:20:12.360Z,19.25
2023-04-01T03:22:42.642Z,15.88
2023-04-01T03:25:11.688Z,15.55
2023-04-01T03:27:40.685Z,18.23
2023-04-01T03:30:09.452Z,14.90
2023-04-01T03:32:44.772Z,16.90
2023-04-01T03:35:12.236Z,16.52
2023-04-01T03:37:39.326Z,16.80
2023-04-01T03:40:07.276Z,17.55
2023-04-01T03:42:35.037Z,18.27
2023-04-01T03:45:02.468Z,17.05
2023-04-01T03:47:30.504Z,17.10
2023-04-01T03:49:57.621Z,15.75
2023-04-01T03:52:26.667Z,16.52
2023-04-01T03:54:53.888Z,15.53
2023-04-01T03:57:21.321Z,15.50
2023-04-01T03:59:48.448Z,16.85
2023-04-01T04:02:15.589Z,15.45
2023-04-01T04:04:43.771Z,15.85
2023-04-01T04:07:11.068Z,17.40
2023-04-01T04:09:58.010Z,17.13
2023-04-01T04:12:25.131Z,16.40
2023-04-01T04:14:52.313Z,15.00
2023-04-01T04:17:19.625Z,16.98
2023-04-01T04:19:47.290Z,15.63
2023-04-01T04:22:17.020Z,17.08
2023-04-01T04:24:44.224Z,15.20
2023-04-01T04:27:13.517Z,14.13
2023-04-01T04:30:00.896Z,15.38
2023-04-01T04:32:29.326Z,16.73
2023-04-01T04:34:57.185Z,13.13
2023-04-01T04:37:24.344Z,15.00
2023-04-01T04:39:51.389Z,13.20
2023-04-01T04:42:18.539Z,16.83
2023-04-01T04:44:46.032Z,16.43
2023-04-01T04:47:13.100Z,13.48
2023-04-01T04:49:40.394Z,15.73
2023-04-01T04:52:10.141Z,16.75
2023-04-01T04:54:37.277Z,14.02
2023-04-01T04:57:05.350Z,12.90
2023-04-01T04:59:38.347Z,14.23
2023-04-01T05:02:14.984Z,16.50
2023-04-01T05:04:42.261Z,16.42
2023-04-01T05:07:11.550Z,14.60
2023-04-01T05:09:38.999Z,15.00
2023-04-01T05:12:06.499Z,14.38
2023-04-01T05:14:56.929Z,15.20
2023-04-01T05:17:24.746Z,14.65
2023-04-01T05:19:51.885Z,17.40
2023-04-01T05:22:19.062Z,13.43
2023-04-01T05:24:46.134Z,15.05
2023-04-01T05:27:13.616Z,17.50
2023-04-01T05:29:42.285Z,17.08
2023-04-01T05:32:16.974Z,30.65
2023-04-01T05:34:44.222Z,36.53
2023-04-01T05:37:11.491Z,18.27
2023-04-01T05:39:39.660Z,14.25
2023-04-01T05:42:08.098Z,17.30
2023-04-01T05:44:36.331Z,13.88
2023-04-01T05:47:05.125Z,13.27
2023-04-01T05:49:32.521Z,13.40
2023-04-01T05:52:00.423Z,14.88
2023-04-01T05:54:28.403Z,14.45
2023-04-01T05:56:56.089Z,16.30
2023-04-01T05:59:23.367Z,13.37
2023-04-01T06:01:53.012Z,16.23
2023-04-01T06:04:21.300Z,16.95
2023-04-01T06:06:48.465Z,14.15
2023-04-01T06:09:27.393Z,16.33
2023-04-01T06:12:17.689Z,15.00
2023-04-01T06:15:11.191Z,14.88
2023-04-01T06:18:07.833Z,13.10
2023-04-01T06:21:14.881Z,13.73
2023-04-01T06:24:22.681Z,12.95
2023-04-01T06:27:11.503Z,14.97
2023-04-01T06:29:48.494Z,13.77
2023-04-01T06:32:44.868Z,13.48
2023-04-01T06:35:11.966Z,18.95
2023-04-01T06:38:22.659Z,14.95
2023-04-01T06:41:13.851Z,18.30
2023-04-01T06:44:02.403Z,14.70
2023-04-01T06:47:00.808Z,18.90
2023-04-01T06:50:06.797Z,16.40
2023-04-01T06:53:12.663Z,16.00
2023-04-01T06:56:11.143Z,15.67
2023-04-01T06:59:01.542Z,16.45
2023-04-01T07:01:43.935Z,17.55
2023-04-01T07:04:18.969Z,16.17
2023-04-01T07:06:59.080Z,15.82
2023-04-01T07:09:32.557Z,15.80
2023-04-01T07:12:37.578Z,15.40
2023-04-01T07:15:25.374Z,16.40
2023-04-01T07:18:00.189Z,15.88
2023-04-01T07:20:29.310Z,15.30
2023-04-01T07:23:02.632Z,18.40
2023-04-01T07:25:55.018Z,17.73
2023-04-01T07:28:35.366Z,15.63
2023-04-01T07:31:53.434Z,17.75
2023-04-01T07:34:27.414Z,16.02
2023-04-01T07:37:11.555Z,18.40
2023-04-01T07:39:49.919Z,16.10
2023-04-01T07:42:52.297Z,16.48
2023-04-01T07:45:27.742Z,16.58
2023-04-01T07:47:55.110Z,19.35
2023-04-01T07:55:16.956Z,22.23
2023-04-01T07:58:04.734Z,17.77
2023-04-01T08:01:06.155Z,18.75
2023-04-01T08:04:00.145Z,20.83
2023-04-01T08:06:41.303Z,17.53
2023-04-01T08:10:03.080Z,17.40
2023-04-01T08:13:12.400Z,19.20
2023-04-01T08:16:49.205Z,17.73
2023-04-01T08:19:55.322Z,16.80
2023-04-01T08:22:51.041Z,18.73
2023-04-01T08:25:57.218Z,18.75
2023-04-01T08:28:47.036Z,19.00
2023-04-01T08:31:38.884Z,23.38
2023-04-01T08:34:32.852Z,18.13
2023-04-01T08:37:18.978Z,17.13
2023-04-01T08:40:01.195Z,20.15
2023-04-01T08:42:41.996Z,17.98
2023-04-01T08:45:32.355Z,18.30
2023-04-01T08:48:33.911Z,17.15
2023-04-01T08:51:33.562Z,17.03
2023-04-01T08:54:30.713Z,18.52
2023-04-01T08:57:17.841Z,18.95
2023-04-01T09:00:39.938Z,15.40
2023-04-01T09:03:32.869Z,17.05
2023-04-01T09:06:12.284Z,15.53
2023-04-01T09:08:57.920Z,14.43
2023-04-01T09:11:40.131Z,14.27
2023-04-01T09:14:49.758Z,15.15
2023-04-01T09:17:44.426Z,15.88
2023-04-01T09:20:29.357Z,17.57
2023-04-01T09:23:07.629Z,14.70
2023-04-01T09:25:55.471Z,17.00
2023-04-01T09:28:57.495Z,13.35
2023-04-01T09:31:34.164Z,15.30
2023-04-01T09:34:36.190Z,14.90
2023-04-01T09:37:04.287Z,15.85
2023-04-01T09:39:43.476Z,13.70
2023-04-01T09:43:04.150Z,13.40
2023-04-01T09:45:58.881Z,17.00
2023-04-01T09:48:32.289Z,15.03
2023-04-01T09:51:20.704Z,16.17
2023-04-01T09:53:47.991Z,11.35
2023-04-01T09:56:39.772Z,13.65
2023-04-01T09:59:16.447Z,13.85
2023-04-01T10:02:37.524Z,11.03
2023-04-01T10:05:22.774Z,12.55
2023-04-01T10:07:49.917Z,12.52
2023-04-01T10:10:17.383Z,12.65
2023-04-01T10:13:33.818Z,11.05
2023-04-01T10:16:35.375Z,12.80
2023-04-01T10:19:29.821Z,11.55
2023-04-01T10:22:18.453Z,14.35
2023-04-01T10:24:56.309Z,11.57
2023-04-01T10:27:41.949Z,11.68
2023-04-01T10:30:33.383Z,11.80
2023-04-01T10:33:23.510Z,12.70
2023-04-01T10:35:50.573Z,11.05
2023-04-01T10:38:25.057Z,9.77
2023-04-01T10:41:12.748Z,12.07
2023-04-01T10:44:11.652Z,9.60
2023-04-01T10:46:42.011Z,9.80
2023-04-01T10:49:28.439Z,10.55
2023-04-01T10:52:35.360Z,13.40
2023-04-01T10:56:07.298Z,10.07
2023-04-01T10:59:26.653Z,12.07
2023-04-01T11:02:28.608Z,11.05
2023-04-01T11:05:32.878Z,10.80
2023-04-01T11:08:26.078Z,11.82
2023-04-01T11:11:14.620Z,11.75
2023-04-01T11:13:46.053Z,12.50
2023-04-01T11:16:25.538Z,13.00
2023-04-01T11:18:58.643Z,9.60
2023-04-01T11:21:54.650Z,10.13
2023-04-01T11:24:45.072Z,9.70
2023-04-01T11:27:39.736Z,12.83
2023-04-01T11:30:14.132Z,8.52
2023-04-01T11:32:59.646Z,12.63
2023-04-01T11:35:53.159Z,8.48
2023-04-01T11:38:32.722Z,9.85
2023-04-01T11:41:46.751Z,9.07
2023-04-01T11:44:37.490Z,9.52
2023-04-01T11:47:22.925Z,10.50
2023-04-01T11:50:12.108Z,7.95
2023-04-01T11:53:02.502Z,10.32
2023-04-01T11:55:42.072Z,8.63
2023-04-01T11:58:31.961Z,9.68
2023-04-01T12:01:21.024Z,10.68
2023-04-01T12:04:19.061Z,12.60
2023-04-01T12:07:13.008Z,10.57
2023-04-01T12:09:58.851Z,9.70
2023-04-01T12:13:01.615Z,8.60
2023-04-01T12:16:09.761Z,13.15
2023-04-01T12:18:43.910Z,8.70
2023-04-01T12:21:33.757Z,8.85
2023-04-01T12:24:21.866Z,9.90
2023-04-01T12:26:51.741Z,43.70
2023-04-01T12:29:37.279Z,9.82
2023-04-01T12:32:17.108Z,10.18
2023-04-01T12:34:46.945Z,9.68
2023-04-01T12:37:22.898Z,10.27
2023-04-01T12:40:16.384Z,12.05
2023-04-01T12:43:09.296Z,12.07
2023-04-01T12:45:45.231Z,13.18
2023-04-01T12:48:16.214Z,11.75
2023-04-01T12:51:22.236Z,13.73
2023-04-01T12:54:26.697Z,13.07
2023-04-01T12:57:17.950Z,16.40
2023-04-01T13:00:35.644Z,10.05
2023-04-01T13:03:24.462Z,12.48
2023-04-01T13:05:54.295Z,12.77
2023-04-01T13:08:54.600Z,11.90
2023-04-01T13:11:30.965Z,11.20
2023-04-01T13:14:07.826Z,13.52
2023-04-01T13:16:58.445Z,17.73
2023-04-01T13:19:31.663Z,13.63
2023-04-01T13:22:10.214Z,12.27
2023-04-01T13:25:01.957Z,13.00
2023-04-01T13:27:43.837Z,14.40
2023-04-01T13:30:30.063Z,15.10
2023-04-01T13:33:33.580Z,17.37
2023-04-01T13:36:15.918Z,16.20
2023-04-01T13:38:59.840Z,12.98
2023-04-01T13:41:45.201Z,13.32
2023-04-01T13:44:30.685Z,13.10
2023-04-01T13:47:22.443Z,12.90
2023-04-01T13:50:20.600Z,10.50
2023-04-01T13:53:04.294Z,11.05
2023-04-01T13:56:00.475Z,11.65
2023-04-01T13:59:02.719Z,13.77
2023-04-01T14:02:04.442Z,10.43
2023-04-01T14:04:46.195Z,15.38
2023-04-01T14:07:38.162Z,12.98
2023-04-01T14:10:32.461Z,11.30
2023-04-01T14:13:08.956Z,19.20
2023-04-01T14:15:58.884Z,12.87
2023-04-01T14:18:55.117Z,16.45
2023-04-01T14:21:39.504Z,14.30
2023-04-01T14:24:56.687Z,17.55
2023-04-01T14:27:41.693Z,16.58
2023-04-01T14:30:40.570Z,15.60
2023-04-01T14:33:32.307Z,14.38
2023-04-01T14:36:32.263Z,14.00
2023-04-01T14:39:08.459Z,16.15
2023-04-01T14:41:47.560Z,19.45
2023-04-01T14:44:14.626Z,18.40
2023-04-01T14:47:26.282Z,17.25
2023-04-01T14:50:22.862Z,14.38
2023-04-01T14:53:08.171Z,15.48
2023-04-01T14:55:51.753Z,16.85
2023-04-01T14:58:22.952Z,14.40
2023-04-01T15:00:58.711Z,15.30
2023-04-01T15:03:41.622Z,16.10
2023-04-01T15:06:36.579Z,15.88
2023-04-01T15:09:12.581Z,18.60
2023-04-01T15:12:02.852Z,17.77
2023-04-01T15:14:39.874Z,17.38
2023-04-01T15:17:16.208Z,15.38
2023-04-01T15:19:58.121Z,17.73
2023-04-01T15:22:39.051Z,18.48
2023-04-01T15:25:06.083Z,17.80
2023-04-01T15:27:44.877Z,17.65
2023-04-01T15:30:20.824Z,16.45
2023-04-01T15:33:03.084Z,19.65
2023-04-01T15:35:39.958Z,18.08
2023-04-01T15:38:44.706Z,15.80
2023-04-01T15:41:37.399Z,18.38
2023-04-01T15:44:04.527Z,18.10
2023-04-01T15:46:31.623Z,21.75
2023-04-01T15:49:24.344Z,20.45
2023-04-01T15:52:21.391Z,18.07
2023-04-01T15:55:07.967Z,17.73
2023-04-01T15:57:37.752Z,17.30
2023-04-01T16:00:33.093Z,19.52
2023-04-01T16:03:29.934Z,19.35
2023-04-01T16:06:16.137Z,20.17
2023-04-01T16:09:12.506Z,18.02
2023-04-01T16:11:57.962Z,16.63
2023-04-01T16:14:43.393Z,18.92
2023-04-01T16:17:21.896Z,18.92
2023-04-01T16:20:21.299Z,17.33
2023-04-01T16:23:03.402Z,16.15
2023-04-01T16:25:54.755Z,18.42
2023-04-01T16:28:41.302Z,17.35
2023-04-01T16:31:31.115Z,17.08
2023-04-01T16:34:17.317Z,17.43
2023-04-01T16:37:01.624Z,19.58
2023-04-01T16:39:42.130Z,15.55
2023-04-01T16:42:12.160Z,16.85
2023-04-01T16:44:55.218Z,19.58
2023-04-01T16:47:32.489Z,16.43
2023-04-01T16:50:32.731Z,17.13
2023-04-01T16:53:16.970Z,20.60
2023-04-01T16:55:54.121Z,19.08
2023-04-01T16:58:38.686Z,19.38
2023-04-01T17:01:13.293Z,24.60
2023-04-01T17:03:45.769Z,23.63
2023-04-01T17:06:15.601Z,19.52
2023-04-01T17:08:57.703Z,17.65
2023-04-01T17:11:30.166Z,19.02
2023-04-01T17:14:21.616Z,19.07
2023-04-01T17:16:51.647Z,19.13
2023-04-01T17:19:59.642Z,18.50
2023-04-01T17:22:35.591Z,16.23
2023-04-01T17:25:09.182Z,20.30
2023-04-01T17:27:45.313Z,16.57
2023-04-01T17:30:23.711Z,20.60
2023-04-01T17:33:21.758Z,16.98
2023-04-01T17:36:06.067Z,16.38
2023-04-01T17:39:14.258Z,15.23
2023-04-01T17:41:53.464Z,19.07
2023-04-01T17:44:38.406Z,16.98
2023-04-01T17:47:23.752Z,18.25
2023-04-01T17:50:03.024Z,19.60
2023-04-01T17:52:46.734Z,20.98
2023-04-01T17:55:38.415Z,18.27
2023-04-01T17:58:16.506Z,19.83
2023-04-01T18:01:18.440Z,19.30
2023-04-01T18:04:01.178Z,19.98
2023-04-01T18:06:37.491Z,19.88
2023-04-01T18:09:19.075Z,21.43
2023-04-01T18:11:55.890Z,18.90
2023-04-01T18:14:41.394Z,19.38
2023-04-01T18:17:33.868Z,21.40
2023-04-01T18:20:03.748Z,18.88
2023-04-01T18:22:42.165Z,19.17
2023-04-01T18:25:20.951Z,19.58
2023-04-01T18:27:53.262Z,17.50
2023-04-01T18:30:36.232Z,19.63
2023-04-01T18:33:19.225Z,17.52
2023-04-01T18:36:12.756Z,17.43
2023-04-01T18:38:54.053Z,21.52
2023-04-01T18:41:39.484Z,25.50
2023-04-01T18:44:28.887Z,22.23
2023-04-01T18:47:01.691Z,20.63
2023-04-01T18:50:01.661Z,20.97
2023-04-01T18:52:39.076Z,21.38
2023-04-01T18:55:06.329Z,19.95
2023-04-01T18:57:49.974Z,22.00
2023-04-01T19:00:36.076Z,18.48
2023-04-01T19:03:28.898Z,18.73
2023-04-01T19:06:01.149Z,21.17
2023-04-01T19:08:37.487Z,21.65
2023-04-01T19:11:25.305Z,23.80
2023-04-01T19:14:21.304Z,18.17
2023-04-01T19:17:05.568Z,20.53
2023-04-01T19:19:45.836Z,22.92
2023-04-01T19:22:21.015Z,20.02
2023-04-01T19:25:36.095Z,21.85
2023-04-01T19:28:21.466Z,22.83
2023-04-01T19:30:56.898Z,21.23
2023-04-01T19:33:38.568Z,25.10
2023-04-01T19:36:12.540Z,23.10
2023-04-01T19:39:02.055Z,20.10
2023-04-01T19:41:36.136Z,20.27
2023-04-01T19:44:15.774Z,19.87
2023-04-01T19:46:50.858Z,19.77
2023-04-01T19:49:17.837Z,21.88
2023-04-01T19:51:51.254Z,23.25
2023-04-01T19:54:18.267Z,21.48
2023-04-01T19:56:50.444Z,25.03
2023-04-01T19:59:25.271Z,19.10
2023-04-01T20:02:12.179Z,24.27
2023-04-01T20:04:49.408Z,23.73
2023-04-01T20:07:28.509Z,23.90
2023-04-01T20:10:07.612Z,21.90
2023-04-01T20:12:59.838Z,23.55
2023-04-01T20:15:38.885Z,23.33
2023-04-01T20:18:34.050Z,22.75
2023-04-01T20:21:06.290Z,20.70
2023-04-01T20:23:45.017Z,21.67
2023-04-01T20:26:15.324Z,25.98
2023-04-01T20:28:48.062Z,23.27
2023-04-01T20:31:32.221Z,20.95
2023-04-01T20:34:11.066Z,22.90
2023-04-01T20:37:11.481Z,23.03
2023-04-01T20:40:17.454Z,20.17
2023-04-01T20:43:22.066Z,24.60
2023-04-01T20:46:16.969Z,22.73
2023-04-01T20:49:09.986Z,23.15
2023-04-01T20:51:41.874Z,21.77
2023-04-01T20:54:30.176Z,21.15
2023-04-01T20:56:57.529Z,21.33
2023-04-01T20:59:52.662Z,23.13
2023-04-01T21:02:44.364Z,23.92
2023-04-01T21:05:41.733Z,22.73
2023-04-01T21:08:36.811Z,20.48
2023-04-01T21:11:40.505Z,21.13
2023-04-01T21:14:41.918Z,21.25
2023-04-01T21:17:36.678Z,19.15
2023-04-01T21:20:25.008Z,23.27
2023-04-01T21:23:12.977Z,24.88
2023-04-01T21:25:58.096Z,20.33
2023-04-01T21:28:47.263Z,21.08
2023-04-01T21:31:57.523Z,23.02
2023-04-01T21:34:35.252Z,23.23
2023-04-01T21:37:29.282Z,22.73
2023-04-01T21:40:17.580Z,22.95
2023-04-01T21:43:10.737Z,22.90
2023-04-01T21:45:56.398Z,20.98
2023-04-01T21:48:38.461Z,22.73
2023-04-01T21:51:20.501Z,20.27
2023-04-01T21:54:05.638Z,27.33
2023-04-01T21:56:38.801Z,23.27
2023-04-01T21:59:47.288Z,26.15
2023-04-01T22:02:28.392Z,21.47
2023-04-01T22:05:11.610Z,24.95
2023-04-01T22:07:43.757Z,22.77
2023-04-01T22:10:22.299Z,27.65
2023-04-01T22:13:23.095Z,26.75
2023-04-01T22:16:05.390Z,22.00
2023-04-01T22:18:38.200Z,23.55
2023-04-01T22:21:22.476Z,21.70
2023-04-01T22:24:17.122Z,25.38
2023-04-01T22:26:46.928Z,27.55
2023-04-01T22:29:29.015Z,25.70
2023-04-01T22:32:14.663Z,23.02
2023-04-01T22:34:58.559Z,23.55
2023-04-01T22:37:36.182Z,25.42
2023-04-01T22:40:21.408Z,22.60
2023-04-01T22:42:55.803Z,24.80
2023-04-01T22:45:50.279Z,25.55
2023-04-01T22:48:39.621Z,28.50
2023-04-01T22:51:48.491Z,25.83
2023-04-01T22:54:28.648Z,23.63
2023-04-01T22:57:10.071Z,26.90
2023-04-01T22:59:54.080Z,24.80
2023-04-01T23:02:48.050Z,28.73
2023-04-01T23:05:21.416Z,22.60
2023-04-01T23:08:03.678Z,24.45
2023-04-01T23:10:48.183Z,25.93
2023-04-01T23:13:23.555Z,28.35
2023-04-01T23:15:54.020Z,27.70
2023-04-01T23:18:21.225Z,30.00
2023-04-01T23:21:19.528Z,27.92
2023-04-01T23:24:19.212Z,30.13
2023-04-01T23:27:11.826Z,32.22
2023-04-01T23:29:41.018Z,34.42
2023-04-01T23:32:15.796Z,32.60
2023-04-01T23:34:49.828Z,30.10
2023-04-01T23:37:19.825Z,30.13
2023-04-01T23:39:52.529Z,29.48
2023-04-01T23:42:53.775Z,31.27
2023-04-01T23:45:21.935Z,28.55
2023-04-01T23:47:52.917Z,34.30
2023-04-01T23:50:27.735Z,33.20
2023-04-01T23:53:03.559Z,29.40
2023-04-01T23:55:35.414Z,31.85
2023-04-01T23:58:28.347Z,32.95
